Главная страница
METAR-TAF:

METAR-TAF

Аэропорты :

Рюгге, Норвегия

широта: 59-23N, долгота: 010-47E, высота над уровнем моря: 5 м

Текущие метеонаблюдения

Эта сводка был подготовлена 29 минут назад, в 10:20 UTC
Ветер 9 Узел от южный
Температура 19°C
Влажность 83%
Давление 1020 hPa
Видимость 10 км и более
Рассеянная облачность на высоте 700 фута

METAR: ENRY 061020Z 19009KT 9999 BKN007 19/16 Q1020 BECMG SCT008

Время: 12:49 (10:49 UTC)

Прогноз

Прогноз действительный с 06-го 06 UTC до 07-го 06 UTC
Ветер 10 Узел от южный-юго-западный
Видимость 10 км и более
Рассеянная облачность на высоте 800 фута
временами
С 06-го 06 UTC до 06-го 08 UTC
Видимость: 4000 м
Рассеянная облачность на высоте 400 фута
ливневые дожди, дымка
изменения
С 06-го 09 UTC до 06-го 11 UTC
Отдельные облака на высоте 800 фута
Рассеянная облачность на высоте 6000 фута

TAF: ENRY 0606/0706 20010KT 9999 BKN008 TEMPO 0606/0608 4000 SHRA BR BKN004 BECMG 0609/0611 SCT008 BKN060

Метеонаблюдения и прогнозы для более 4000 аэропортов (сводки METAR и TAF).

Имеющиеся станции представлены на карте желтыми и красными точками.

Чтобы увидеть название станции, наведите на нее мышь.

Затем щелкните, чтобы увидеть метеонаблюдения и метеопрогнозы.

Управление картой: чтобы увеличить масштаб, щелкните зеленые кнопки с черным крестиком; чтобы уменьшить масштаб, щелкните зеленую кнопку с тире; для просмотра соседних карт щелкайте зеленые стрелки.


METAR-TAF: